createdAt,value
2022-10-22T00:00:59.595Z,14.1
2022-10-22T00:02:00.190Z,14.0
2022-10-22T00:03:00.846Z,14.0
2022-10-22T00:04:01.433Z,14.1
2022-10-22T00:05:02.032Z,14.1
2022-10-22T00:06:02.619Z,14.1
2022-10-22T00:07:03.215Z,14.0
2022-10-22T00:08:03.814Z,14.0
2022-10-22T00:09:04.481Z,13.9
2022-10-22T00:10:05.057Z,13.9
2022-10-22T00:11:05.653Z,14.0
2022-10-22T00:12:06.247Z,14.1
2022-10-22T00:13:06.843Z,14.2
2022-10-22T00:14:07.438Z,14.2
2022-10-22T00:15:08.035Z,14.3
2022-10-22T00:16:08.634Z,14.3
2022-10-22T00:17:11.550Z,14.3
2022-10-22T00:18:10.808Z,14.3
2022-10-22T00:19:11.404Z,14.3
2022-10-22T00:20:11.999Z,14.5
2022-10-22T00:21:12.592Z,14.5
2022-10-22T00:22:13.186Z,14.5
2022-10-22T00:23:13.785Z,14.2
2022-10-22T00:24:14.397Z,14.3
2022-10-22T00:25:14.993Z,14.2
2022-10-22T00:26:15.587Z,14.2
2022-10-22T00:27:16.181Z,14.2
2022-10-22T00:28:16.797Z,14.1
2022-10-22T00:29:17.393Z,14.2
2022-10-22T00:30:17.984Z,14.1
2022-10-22T00:31:18.581Z,14.2
2022-10-22T00:32:19.174Z,14.2
2022-10-22T00:33:19.770Z,14.2
2022-10-22T00:34:20.363Z,14.2
2022-10-22T00:35:20.955Z,14.3
2022-10-22T00:36:21.550Z,14.1
2022-10-22T00:37:22.146Z,14.3
2022-10-22T00:38:22.739Z,14.2
2022-10-22T00:39:23.335Z,14.2
2022-10-22T00:40:23.947Z,14.2
2022-10-22T00:41:24.562Z,14.1
2022-10-22T00:42:25.156Z,14.0
2022-10-22T00:43:25.760Z,14.0
2022-10-22T00:44:26.346Z,14.0
2022-10-22T00:45:26.942Z,14.0
2022-10-22T00:46:27.536Z,13.9
2022-10-22T00:47:28.130Z,13.9
2022-10-22T00:48:28.723Z,13.7
2022-10-22T00:49:29.316Z,13.7
2022-10-22T00:50:29.912Z,13.7
2022-10-22T00:51:30.506Z,13.6
2022-10-22T00:52:31.100Z,13.6
2022-10-22T00:53:31.695Z,13.5
2022-10-22T00:54:32.289Z,13.5
2022-10-22T00:55:32.886Z,13.4
2022-10-22T00:56:33.478Z,13.5
2022-10-22T00:57:34.074Z,13.6
2022-10-22T00:58:34.668Z,13.5
2022-10-22T00:59:35.263Z,13.5
2022-10-22T01:00:35.916Z,13.6
2022-10-22T01:01:36.454Z,13.6
2022-10-22T01:02:37.104Z,13.6
2022-10-22T01:03:37.940Z,13.6
2022-10-22T01:04:38.538Z,13.6
2022-10-22T01:05:39.152Z,13.8
2022-10-22T01:06:39.746Z,13.8
2022-10-22T01:07:40.341Z,13.9
2022-10-22T01:08:40.968Z,13.9
2022-10-22T01:09:41.529Z,14.0
2022-10-22T01:10:42.124Z,14.0
2022-10-22T01:11:42.719Z,13.9
2022-10-22T01:12:43.578Z,14.0
2022-10-22T01:13:44.171Z,14.0
2022-10-22T01:14:44.784Z,13.9
2022-10-22T01:15:45.378Z,13.9
2022-10-22T01:16:45.970Z,13.9
2022-10-22T01:17:46.891Z,13.8
2022-10-22T01:18:47.615Z,13.8
2022-10-22T01:19:48.214Z,13.9
2022-10-22T01:20:48.803Z,13.8
2022-10-22T01:21:49.399Z,13.9
2022-10-22T01:22:49.993Z,13.8
2022-10-22T01:23:50.592Z,13.8
2022-10-22T01:24:51.184Z,13.7
2022-10-22T01:25:51.784Z,13.7
2022-10-22T01:26:52.372Z,13.8
2022-10-22T01:27:52.968Z,13.8
2022-10-22T01:28:53.562Z,13.8
2022-10-22T01:29:54.157Z,13.8
2022-10-22T01:30:54.778Z,13.8
2022-10-22T01:31:55.349Z,13.9
2022-10-22T01:32:55.944Z,13.9
2022-10-22T01:33:56.538Z,13.9
2022-10-22T01:34:57.131Z,13.8
2022-10-22T01:35:57.726Z,13.8
2022-10-22T01:36:58.320Z,13.8
2022-10-22T01:37:58.917Z,13.7
2022-10-22T01:38:59.511Z,13.7
2022-10-22T01:40:00.108Z,13.8
2022-10-22T01:41:00.701Z,13.7
2022-10-22T01:42:01.300Z,13.8
2022-10-22T01:43:01.903Z,13.8
2022-10-22T01:44:02.484Z,13.8
2022-10-22T01:45:03.080Z,13.7
2022-10-22T01:46:03.675Z,13.7
2022-10-22T01:47:04.269Z,13.8
2022-10-22T01:48:04.864Z,13.9
2022-10-22T01:49:05.457Z,13.9
2022-10-22T01:50:06.051Z,13.8
2022-10-22T01:51:06.645Z,13.7
2022-10-22T01:52:07.240Z,13.7
2022-10-22T01:53:07.836Z,13.6
2022-10-22T01:54:08.454Z,13.5
2022-10-22T01:55:09.093Z,13.6
2022-10-22T01:56:09.689Z,13.5
2022-10-22T01:57:10.281Z,13.5
2022-10-22T01:58:10.876Z,13.5
2022-10-22T01:59:11.469Z,13.4
2022-10-22T02:00:12.093Z,13.4
2022-10-22T02:01:12.724Z,13.4
2022-10-22T02:02:13.325Z,13.3
2022-10-22T02:03:13.920Z,13.3
2022-10-22T02:04:14.520Z,13.3
2022-10-22T02:05:15.108Z,13.3
2022-10-22T02:06:15.702Z,13.3
2022-10-22T02:07:16.295Z,13.3
2022-10-22T02:08:16.892Z,13.2
2022-10-22T02:09:17.556Z,13.2
2022-10-22T02:10:18.198Z,13.3
2022-10-22T02:11:18.787Z,13.4
2022-10-22T02:12:19.382Z,13.3
2022-10-22T02:13:19.980Z,13.3
2022-10-22T02:14:20.570Z,13.3
2022-10-22T02:15:21.168Z,13.4
2022-10-22T02:16:21.757Z,13.3
2022-10-22T02:17:22.353Z,13.2
2022-10-22T02:18:22.947Z,13.2
2022-10-22T02:19:23.542Z,13.2
2022-10-22T02:20:24.137Z,13.3
2022-10-22T02:21:24.731Z,13.3
2022-10-22T02:22:25.324Z,13.1
2022-10-22T02:23:25.918Z,13.2
2022-10-22T02:24:26.528Z,13.2
2022-10-22T02:25:27.148Z,13.2
2022-10-22T02:26:27.737Z,13.2
2022-10-22T02:27:28.342Z,13.2
2022-10-22T02:28:28.928Z,13.2
2022-10-22T02:29:29.521Z,13.2
2022-10-22T02:30:30.118Z,13.2
2022-10-22T02:31:30.736Z,13.2
2022-10-22T02:32:31.326Z,13.2
2022-10-22T02:33:31.923Z,13.2
2022-10-22T02:34:32.536Z,13.3
2022-10-22T02:35:33.150Z,13.2
2022-10-22T02:36:33.746Z,13.2
2022-10-22T02:37:34.342Z,13.2
2022-10-22T02:38:34.936Z,13.3
2022-10-22T02:39:35.531Z,13.3
2022-10-22T02:40:36.125Z,13.4
2022-10-22T02:41:36.720Z,13.2
2022-10-22T02:42:37.414Z,13.1
2022-10-22T02:43:38.071Z,13.1
2022-10-22T02:44:38.663Z,12.9
2022-10-22T02:45:39.260Z,12.8
2022-10-22T02:46:39.853Z,12.7
2022-10-22T02:47:40.448Z,12.7
2022-10-22T02:48:41.044Z,12.7
2022-10-22T02:49:41.639Z,12.7
2022-10-22T02:50:42.235Z,12.7
2022-10-22T02:51:42.827Z,12.6
2022-10-22T02:52:43.638Z,12.6
2022-10-22T02:53:44.303Z,12.6
2022-10-22T02:54:44.896Z,12.6
2022-10-22T02:55:45.491Z,12.9
2022-10-22T02:56:46.084Z,12.8
2022-10-22T02:57:46.700Z,12.8
2022-10-22T02:58:47.294Z,12.9
2022-10-22T02:59:48.073Z,12.7
2022-10-22T03:00:48.692Z,12.4
2022-10-22T03:01:49.263Z,12.4
2022-10-22T03:02:49.857Z,12.3
2022-10-22T03:03:50.453Z,12.2
2022-10-22T03:04:51.049Z,12.0
2022-10-22T03:05:51.649Z,12.2
2022-10-22T03:06:52.241Z,12.2
2022-10-22T03:07:52.838Z,12.3
2022-10-22T03:08:53.463Z,12.3
2022-10-22T03:09:54.031Z,12.4
2022-10-22T03:10:54.624Z,12.5
2022-10-22T03:11:55.217Z,12.6
2022-10-22T03:12:55.813Z,12.6
2022-10-22T03:13:56.409Z,12.6
2022-10-22T03:14:57.003Z,12.5
2022-10-22T03:15:57.618Z,12.4
2022-10-22T03:16:58.213Z,12.5
2022-10-22T03:17:58.808Z,12.5
2022-10-22T03:18:59.399Z,12.5
2022-10-22T03:19:59.992Z,12.5
2022-10-22T03:21:00.588Z,12.5
2022-10-22T03:22:01.183Z,12.5
2022-10-22T03:23:01.778Z,12.3
2022-10-22T03:24:02.375Z,12.5
2022-10-22T03:25:02.969Z,12.5
2022-10-22T03:26:03.566Z,12.5
2022-10-22T03:27:04.155Z,12.6
2022-10-22T03:28:04.753Z,12.6
2022-10-22T03:29:05.347Z,12.6
2022-10-22T03:30:05.944Z,12.6
2022-10-22T03:31:06.537Z,12.9
2022-10-22T03:32:07.132Z,12.8
2022-10-22T03:33:07.729Z,12.8
2022-10-22T03:34:08.321Z,12.7
2022-10-22T03:35:08.916Z,12.7
2022-10-22T03:36:09.510Z,12.6
2022-10-22T03:37:10.105Z,12.6
2022-10-22T03:38:10.701Z,12.5
2022-10-22T03:39:11.298Z,12.4
2022-10-22T03:40:11.892Z,12.3
2022-10-22T03:41:12.485Z,12.2
2022-10-22T03:42:13.082Z,12.3
2022-10-22T03:43:13.674Z,12.3
2022-10-22T03:44:14.292Z,12.5
2022-10-22T03:45:14.887Z,12.5
2022-10-22T03:46:15.483Z,12.6
2022-10-22T03:47:16.079Z,12.7
2022-10-22T03:48:16.673Z,12.7
2022-10-22T03:49:17.266Z,12.7
2022-10-22T03:50:17.859Z,12.7
2022-10-22T03:51:18.451Z,12.8
2022-10-22T03:52:19.048Z,12.8
2022-10-22T03:53:19.642Z,12.8
2022-10-22T03:54:20.238Z,12.8
2022-10-22T03:55:20.831Z,12.9
2022-10-22T03:56:21.425Z,12.9
2022-10-22T03:57:22.019Z,12.9
2022-10-22T03:58:22.613Z,12.9
2022-10-22T03:59:23.208Z,12.9
2022-10-22T04:00:23.802Z,12.9
2022-10-22T04:01:24.496Z,12.9
2022-10-22T04:02:25.063Z,12.9
2022-10-22T04:03:25.657Z,13.0
2022-10-22T04:04:26.250Z,12.9
2022-10-22T04:05:26.846Z,12.9
2022-10-22T04:06:27.438Z,12.5
2022-10-22T04:07:28.038Z,12.4
2022-10-22T04:08:28.629Z,12.3
2022-10-22T04:09:29.225Z,12.2
2022-10-22T04:10:29.821Z,12.3
2022-10-22T04:11:30.413Z,12.4
2022-10-22T04:12:31.008Z,12.5
2022-10-22T04:13:31.601Z,12.6
2022-10-22T04:14:32.215Z,12.7
2022-10-22T04:15:32.822Z,12.8
2022-10-22T04:16:33.407Z,12.9
2022-10-22T04:17:33.998Z,12.8
2022-10-22T04:18:34.592Z,12.9
2022-10-22T04:19:35.187Z,12.9
2022-10-22T04:20:35.783Z,12.9
2022-10-22T04:21:36.376Z,12.9
2022-10-22T04:22:36.976Z,12.9
2022-10-22T04:23:37.566Z,12.9
2022-10-22T04:24:38.213Z,12.9
2022-10-22T04:25:38.836Z,12.9
2022-10-22T04:26:39.429Z,12.8
2022-10-22T04:27:40.363Z,12.9
2022-10-22T04:28:40.636Z,12.8
2022-10-22T04:29:41.230Z,12.8
2022-10-22T04:30:41.822Z,12.9
2022-10-22T04:31:42.419Z,12.9
2022-10-22T04:32:43.015Z,12.9
2022-10-22T04:33:43.610Z,12.7
2022-10-22T04:34:44.205Z,12.4
2022-10-22T04:35:44.807Z,12.4
2022-10-22T04:36:45.417Z,12.4
2022-10-22T04:37:46.032Z,12.3
2022-10-22T04:38:46.634Z,12.4
2022-10-22T04:39:47.244Z,12.3
2022-10-22T04:40:47.838Z,12.4
2022-10-22T04:41:48.433Z,12.5
2022-10-22T04:42:49.030Z,12.5
2022-10-22T04:43:49.624Z,12.5
2022-10-22T04:44:50.221Z,12.4
2022-10-22T04:45:50.854Z,12.4
2022-10-22T04:46:51.409Z,12.5
2022-10-22T04:47:52.024Z,12.6
2022-10-22T04:48:52.619Z,12.5
2022-10-22T04:49:53.232Z,12.7
2022-10-22T04:50:53.831Z,12.6
2022-10-22T04:51:54.424Z,12.5
2022-10-22T04:52:55.017Z,12.5
2022-10-22T04:53:55.610Z,12.6
2022-10-22T04:54:56.207Z,12.6
2022-10-22T04:55:56.801Z,12.7
2022-10-22T04:56:57.397Z,12.6
2022-10-22T04:57:57.994Z,12.5
2022-10-22T04:58:58.588Z,12.6
2022-10-22T04:59:59.185Z,12.6
2022-10-22T05:00:59.829Z,12.6
2022-10-22T05:02:00.398Z,12.7
2022-10-22T05:03:00.993Z,12.7
2022-10-22T05:04:01.591Z,12.6
2022-10-22T05:05:02.182Z,12.7
2022-10-22T05:06:02.839Z,12.7
2022-10-22T05:07:03.417Z,12.7
2022-10-22T05:08:04.011Z,12.7
2022-10-22T05:09:04.669Z,12.8
2022-10-22T05:10:05.288Z,12.7
2022-10-22T05:11:05.884Z,12.7
2022-10-22T05:12:06.481Z,12.7
2022-10-22T05:13:07.070Z,12.7
2022-10-22T05:14:07.662Z,12.7
2022-10-22T05:15:08.259Z,12.7
2022-10-22T05:16:08.874Z,12.7
2022-10-22T05:17:09.472Z,12.7
2022-10-22T05:18:10.065Z,12.7
2022-10-22T05:19:10.660Z,12.7
2022-10-22T05:20:11.252Z,12.7
2022-10-22T05:21:11.849Z,12.7
2022-10-22T05:22:12.441Z,12.6
2022-10-22T05:23:13.037Z,12.6
2022-10-22T05:24:13.632Z,12.4
2022-10-22T05:25:14.228Z,12.5
2022-10-22T05:26:14.822Z,12.4
2022-10-22T05:27:15.466Z,12.5
2022-10-22T05:28:16.025Z,12.3
2022-10-22T05:29:16.639Z,12.3
2022-10-22T05:30:17.233Z,12.4
2022-10-22T05:31:17.838Z,12.3
2022-10-22T05:32:18.420Z,12.3
2022-10-22T05:33:23.321Z,12.4
2022-10-22T05:34:20.603Z,12.4
2022-10-22T05:35:21.198Z,12.3
2022-10-22T05:36:21.791Z,12.3
2022-10-22T05:37:22.389Z,12.3
2022-10-22T05:38:22.983Z,12.5
2022-10-22T05:39:23.580Z,12.4
2022-10-22T05:40:30.608Z,12.4
2022-10-22T05:41:25.764Z,12.5
2022-10-22T05:42:26.358Z,12.6
2022-10-22T05:43:26.956Z,12.6
2022-10-22T05:44:27.548Z,12.5
2022-10-22T05:45:28.147Z,12.5
2022-10-22T05:46:28.761Z,12.4
2022-10-22T05:47:29.362Z,12.5
2022-10-22T05:48:30.038Z,12.5
2022-10-22T05:49:30.631Z,12.5
2022-10-22T05:50:31.226Z,12.5
2022-10-22T05:51:31.822Z,12.5
2022-10-22T05:52:32.418Z,12.4
2022-10-22T05:53:33.017Z,12.5
2022-10-22T05:54:33.615Z,12.3
2022-10-22T05:55:34.213Z,12.3
2022-10-22T05:56:34.810Z,12.4
2022-10-22T05:57:35.407Z,12.3
2022-10-22T05:58:36.005Z,12.3
2022-10-22T05:59:36.602Z,12.2
2022-10-22T06:00:37.202Z,12.3
2022-10-22T06:01:37.800Z,12.2
2022-10-22T06:02:38.664Z,12.2
2022-10-22T06:03:39.394Z,12.2
2022-10-22T06:04:39.992Z,12.3
2022-10-22T06:05:40.593Z,12.2
2022-10-22T06:06:41.189Z,12.2
2022-10-22T06:07:41.791Z,12.3
2022-10-22T06:08:42.412Z,12.2
2022-10-22T06:09:43.006Z,12.2
2022-10-22T06:10:43.601Z,12.3
2022-10-22T06:11:44.201Z,12.2
2022-10-22T06:12:44.845Z,12.2
2022-10-22T06:13:45.397Z,12.3
2022-10-22T06:14:45.993Z,12.2
2022-10-22T06:15:46.594Z,12.2
2022-10-22T06:16:47.210Z,12.2
2022-10-22T06:17:47.809Z,12.2
2022-10-22T06:18:48.406Z,12.2
2022-10-22T06:19:49.005Z,12.3
2022-10-22T06:20:49.602Z,12.3
2022-10-22T06:21:50.202Z,12.4
2022-10-22T06:22:50.799Z,12.5
2022-10-22T06:23:51.398Z,12.5
2022-10-22T06:24:51.995Z,12.4
2022-10-22T06:25:52.595Z,12.5
2022-10-22T06:26:53.191Z,12.5
2022-10-22T06:27:53.793Z,12.5
2022-10-22T06:28:54.393Z,12.5
2022-10-22T06:29:55.009Z,12.5
2022-10-22T06:30:55.611Z,12.6
2022-10-22T06:31:56.206Z,12.6
2022-10-22T06:32:56.809Z,12.6
2022-10-22T06:33:57.404Z,12.6
2022-10-22T06:34:58.006Z,12.6
2022-10-22T06:35:58.604Z,12.6
2022-10-22T06:36:59.204Z,12.6
2022-10-22T06:37:59.802Z,12.7
2022-10-22T06:39:00.403Z,12.6
2022-10-22T06:40:01.000Z,12.7
2022-10-22T06:41:01.601Z,12.6
2022-10-22T06:42:02.202Z,12.6
2022-10-22T06:43:02.802Z,12.6
2022-10-22T06:44:03.403Z,12.6
2022-10-22T06:45:04.013Z,12.6
2022-10-22T06:46:04.602Z,12.6
2022-10-22T06:47:05.203Z,12.6
2022-10-22T06:48:05.801Z,12.6
2022-10-22T06:49:06.400Z,12.6
2022-10-22T06:50:06.999Z,12.7
2022-10-22T06:51:07.598Z,12.7
2022-10-22T06:52:08.197Z,12.6
2022-10-22T06:53:08.860Z,12.6
2022-10-22T06:54:09.407Z,12.7
2022-10-22T06:55:10.025Z,12.7
2022-10-22T06:56:10.624Z,12.8
2022-10-22T06:57:11.223Z,12.8
2022-10-22T06:58:11.824Z,13.0
2022-10-22T06:59:12.422Z,13.1
2022-10-22T07:00:13.021Z,13.2
2022-10-22T07:01:13.668Z,13.4
2022-10-22T07:02:14.240Z,13.8
2022-10-22T07:03:14.839Z,14.4
2022-10-22T07:04:15.440Z,14.8
2022-10-22T07:05:16.038Z,14.9
2022-10-22T07:06:16.635Z,15.3
2022-10-22T07:07:17.234Z,15.6
2022-10-22T07:08:17.833Z,15.6
2022-10-22T07:10:19.033Z,15.9
2022-10-22T07:11:19.638Z,16.2
2022-10-22T07:12:20.230Z,16.1
2022-10-22T07:13:20.827Z,16.2
2022-10-22T07:14:21.423Z,16.5
2022-10-22T07:15:22.021Z,16.9
2022-10-22T07:16:22.618Z,16.9
2022-10-22T07:17:23.219Z,16.7
2022-10-22T07:18:23.812Z,17.1
2022-10-22T07:19:24.413Z,16.6
2022-10-22T07:20:25.007Z,16.4
2022-10-22T07:21:25.605Z,15.9
2022-10-22T07:22:26.201Z,16.1
2022-10-22T07:23:26.801Z,16.5
2022-10-22T07:24:27.395Z,16.6
2022-10-22T07:25:27.997Z,16.7
2022-10-22T07:26:28.591Z,17.1
2022-10-22T07:27:29.189Z,17.1
2022-10-22T07:28:29.789Z,17.2
2022-10-22T07:29:30.386Z,17.9
2022-10-22T07:30:30.990Z,18.6
2022-10-22T07:31:31.600Z,18.3
2022-10-22T07:32:32.196Z,18.4
2022-10-22T07:33:32.798Z,18.1
2022-10-22T07:34:33.402Z,18.4
2022-10-22T07:35:33.991Z,18.4
2022-10-22T07:36:34.590Z,18.4
2022-10-22T07:37:35.188Z,18.1
2022-10-22T07:38:35.784Z,18.0
2022-10-22T07:39:36.383Z,17.6
2022-10-22T07:40:36.983Z,17.2
2022-10-22T07:41:37.580Z,16.5
2022-10-22T07:42:38.498Z,16.2
2022-10-22T07:43:39.113Z,15.9
2022-10-22T07:44:39.730Z,15.8
2022-10-22T07:45:40.310Z,15.6
2022-10-22T07:46:41.179Z,15.3
2022-10-22T07:47:42.719Z,15.1
2022-10-22T07:48:43.468Z,15.1
2022-10-22T07:49:44.069Z,15.1
2022-10-22T07:51:45.276Z,15.0
2022-10-22T07:52:45.875Z,15.0
2022-10-22T07:53:46.477Z,14.9
2022-10-22T07:54:47.075Z,14.9
2022-10-22T07:55:47.675Z,14.9
2022-10-22T07:56:48.273Z,14.8
2022-10-22T07:57:48.876Z,14.8
2022-10-22T07:58:49.504Z,14.8
2022-10-22T07:59:50.077Z,14.9
2022-10-22T08:00:50.676Z,14.9
2022-10-22T08:01:51.277Z,14.9
2022-10-22T08:02:51.875Z,15.0
2022-10-22T08:03:52.475Z,15.2
2022-10-22T08:04:53.073Z,15.2
2022-10-22T08:05:53.675Z,15.3
2022-10-22T08:06:54.274Z,15.4
2022-10-22T08:07:54.875Z,15.5
2022-10-22T08:08:55.511Z,15.5
2022-10-22T08:09:56.084Z,15.5
2022-10-22T08:10:56.682Z,15.5
2022-10-22T08:11:57.284Z,15.5
2022-10-22T08:12:57.888Z,15.5
2022-10-22T08:13:58.485Z,15.5
2022-10-22T08:14:59.083Z,15.6
2022-10-22T08:15:59.686Z,15.6
2022-10-22T08:17:00.282Z,15.7
2022-10-22T08:18:00.882Z,15.8
2022-10-22T08:19:01.481Z,15.8
2022-10-22T08:20:02.080Z,15.9
2022-10-22T08:21:02.681Z,15.9
2022-10-22T08:22:03.282Z,16.1
2022-10-22T08:23:03.883Z,16.1
2022-10-22T08:24:04.564Z,16.1
2022-10-22T08:25:05.139Z,16.3
2022-10-22T08:26:05.739Z,16.3
2022-10-22T08:27:06.338Z,16.3
2022-10-22T08:28:06.940Z,16.2
2022-10-22T08:29:07.543Z,16.3
2022-10-22T08:30:08.138Z,16.2
2022-10-22T08:31:08.902Z,16.2
2022-10-22T08:32:09.505Z,16.2
2022-10-22T08:33:10.102Z,16.3
2022-10-22T08:34:10.702Z,16.3
2022-10-22T08:35:14.105Z,16.3
2022-10-22T08:36:12.914Z,16.4
2022-10-22T08:37:13.513Z,16.3
2022-10-22T08:38:14.112Z,16.3
2022-10-22T08:39:14.712Z,16.4
2022-10-22T08:40:15.312Z,16.5
2022-10-22T08:41:15.919Z,16.5
2022-10-22T08:42:16.516Z,16.7
2022-10-22T08:43:17.119Z,16.6
2022-10-22T08:44:17.719Z,16.5
2022-10-22T08:45:18.319Z,16.7
2022-10-22T08:46:18.918Z,16.7
2022-10-22T08:47:21.624Z,16.7
2022-10-22T08:48:21.114Z,16.7
2022-10-22T08:49:21.713Z,16.8
2022-10-22T08:50:22.314Z,16.9
2022-10-22T08:51:22.915Z,16.9
2022-10-22T08:52:23.515Z,17.0
2022-10-22T08:53:24.118Z,16.9
2022-10-22T08:54:24.717Z,16.9
2022-10-22T08:55:25.316Z,17.0
2022-10-22T08:56:25.936Z,16.9
2022-10-22T08:57:26.577Z,17.0
2022-10-22T08:58:27.140Z,17.1
2022-10-22T08:59:27.758Z,17.2
2022-10-22T09:00:28.361Z,17.1
2022-10-22T09:01:29.110Z,17.1
2022-10-22T09:02:29.712Z,17.2
2022-10-22T09:03:30.311Z,17.3
2022-10-22T09:04:30.918Z,17.3
2022-10-22T09:05:31.533Z,17.3
2022-10-22T09:06:32.136Z,17.3
2022-10-22T09:07:32.751Z,17.3
2022-10-22T09:08:33.382Z,17.5
2022-10-22T09:09:33.958Z,17.5
2022-10-22T09:10:34.558Z,17.5
2022-10-22T09:11:35.165Z,17.7
2022-10-22T09:12:35.759Z,17.7
2022-10-22T09:13:36.361Z,17.8
2022-10-22T09:14:36.967Z,17.8
2022-10-22T09:15:37.584Z,17.9
2022-10-22T09:16:38.389Z,17.8
2022-10-22T09:17:39.304Z,17.9
2022-10-22T09:18:39.605Z,18.1
2022-10-22T09:19:40.207Z,17.9
2022-10-22T09:20:40.808Z,18.0
2022-10-22T09:21:41.409Z,17.9
2022-10-22T09:22:42.143Z,18.0
2022-10-22T09:23:42.739Z,18.0
2022-10-22T09:24:43.342Z,18.0
2022-10-22T09:25:43.944Z,18.2
2022-10-22T09:26:44.570Z,17.9
2022-10-22T09:27:45.164Z,17.9
2022-10-22T09:28:45.765Z,17.8
2022-10-22T09:29:46.365Z,17.9
2022-10-22T09:30:47.593Z,18.1
2022-10-22T09:31:48.155Z,18.0
2022-10-22T09:32:48.757Z,18.0
2022-10-22T09:33:49.355Z,17.8
2022-10-22T09:34:49.959Z,17.8
2022-10-22T09:35:50.562Z,17.8
2022-10-22T09:36:51.159Z,17.9
2022-10-22T09:37:51.759Z,18.0
2022-10-22T09:38:52.359Z,18.0
2022-10-22T09:39:52.956Z,17.9
2022-10-22T09:40:53.559Z,18.1
2022-10-22T09:41:54.157Z,18.0
2022-10-22T09:42:54.758Z,17.9
2022-10-22T09:43:55.812Z,17.9
2022-10-22T09:44:56.419Z,18.0
2022-10-22T09:45:57.033Z,18.1
2022-10-22T09:46:57.647Z,18.0
2022-10-22T09:48:01.805Z,18.1
2022-10-22T09:48:59.841Z,18.1
2022-10-22T09:50:00.444Z,18.0
2022-10-22T09:51:01.045Z,17.9
2022-10-22T09:52:01.649Z,17.9
2022-10-22T09:53:02.245Z,17.9
2022-10-22T09:54:02.848Z,18.0
2022-10-22T09:55:03.450Z,18.1
2022-10-22T09:56:04.054Z,18.2
2022-10-22T09:57:04.671Z,18.3
2022-10-22T09:58:05.274Z,18.3
2022-10-22T09:59:05.872Z,18.3
2022-10-22T10:00:06.472Z,18.4
2022-10-22T10:01:07.077Z,18.4
2022-10-22T10:02:19.828Z,18.4
2022-10-22T10:03:09.302Z,18.5
2022-10-22T10:04:10.199Z,18.4
2022-10-22T10:05:10.744Z,18.3
2022-10-22T10:06:11.346Z,18.4
2022-10-22T10:07:11.948Z,18.4
2022-10-22T10:08:12.548Z,18.4
2022-10-22T10:09:13.187Z,18.5
2022-10-22T10:10:13.749Z,18.4
2022-10-22T10:11:14.350Z,18.3
2022-10-22T10:12:14.971Z,18.5
2022-10-22T10:13:15.574Z,18.3
2022-10-22T10:14:16.174Z,18.4
2022-10-22T10:15:16.775Z,18.5
2022-10-22T10:16:17.374Z,18.5
2022-10-22T10:17:17.975Z,18.4
2022-10-22T10:18:18.594Z,18.3
2022-10-22T10:19:19.206Z,18.3
2022-10-22T10:20:19.794Z,18.3
2022-10-22T10:21:20.417Z,18.3
2022-10-22T10:22:21.026Z,18.4
2022-10-22T10:23:24.442Z,18.4
2022-10-22T10:24:23.218Z,18.4
2022-10-22T10:25:23.820Z,18.4
2022-10-22T10:26:24.420Z,18.4
2022-10-22T10:27:25.021Z,18.5
2022-10-22T10:28:25.621Z,18.4
2022-10-22T10:29:26.263Z,18.6
2022-10-22T10:30:26.833Z,18.7
2022-10-22T10:31:27.429Z,18.5
2022-10-22T10:32:28.030Z,18.5
2022-10-22T10:33:28.648Z,18.3
2022-10-22T10:34:29.290Z,18.3
2022-10-22T10:35:29.892Z,18.5
2022-10-22T10:36:30.514Z,18.6
2022-10-22T10:37:31.116Z,18.5
2022-10-22T10:38:31.717Z,18.6
2022-10-22T10:39:32.338Z,18.6
2022-10-22T10:40:32.949Z,18.7
2022-10-22T10:41:33.585Z,18.7
2022-10-22T10:42:34.199Z,18.6
2022-10-22T10:43:34.795Z,18.7
2022-10-22T10:44:35.395Z,18.7
2022-10-22T10:45:35.997Z,18.7
2022-10-22T10:46:37.260Z,18.7
2022-10-22T10:47:37.935Z,18.8
2022-10-22T10:48:38.508Z,18.8
2022-10-22T10:49:39.110Z,18.6
2022-10-22T10:50:39.714Z,18.6
2022-10-22T10:51:40.312Z,18.7
2022-10-22T10:52:40.913Z,18.7
2022-10-22T10:53:41.514Z,18.6
2022-10-22T10:54:42.119Z,18.6
2022-10-22T10:55:42.722Z,18.6
2022-10-22T10:56:43.317Z,18.7
2022-10-22T10:57:44.079Z,18.9
2022-10-22T10:58:44.721Z,19.0
2022-10-22T10:59:45.321Z,19.0
2022-10-22T11:00:45.922Z,18.9
2022-10-22T11:01:46.598Z,18.9
2022-10-22T11:02:47.224Z,18.8
2022-10-22T11:03:47.807Z,18.6
2022-10-22T11:04:48.432Z,18.7
2022-10-22T11:05:49.031Z,18.7
2022-10-22T11:06:49.635Z,18.8
2022-10-22T11:07:55.551Z,19.0
2022-10-22T11:08:51.883Z,19.1
2022-10-22T11:09:52.432Z,19.2
2022-10-22T11:10:53.033Z,19.3
2022-10-22T11:11:53.634Z,19.3
2022-10-22T11:12:54.241Z,19.3
2022-10-22T11:13:54.837Z,19.4
2022-10-22T11:14:55.440Z,19.8
2022-10-22T11:15:56.042Z,19.8
2022-10-22T11:16:56.642Z,19.8
2022-10-22T11:17:57.264Z,19.8
2022-10-22T11:18:57.865Z,19.6
2022-10-22T11:20:00.137Z,19.5
2022-10-22T11:21:00.133Z,19.5
2022-10-22T11:22:00.721Z,19.4
2022-10-22T11:23:18.946Z,19.3
2022-10-22T11:24:02.935Z,19.4
2022-10-22T11:25:03.580Z,19.3
2022-10-22T11:26:04.158Z,19.3
2022-10-22T11:27:04.761Z,19.2
2022-10-22T11:28:10.353Z,19.1
2022-10-22T11:29:06.974Z,19.1
2022-10-22T11:30:07.574Z,19.1
2022-10-22T11:31:08.175Z,19.0
2022-10-22T11:32:08.775Z,19.2
2022-10-22T11:33:09.376Z,19.1
2022-10-22T11:34:28.846Z,19.1
2022-10-22T11:35:11.471Z,19.0
2022-10-22T11:36:12.072Z,18.9
2022-10-22T11:37:12.692Z,18.8
2022-10-22T11:38:13.286Z,18.8
2022-10-22T11:39:13.886Z,18.7
2022-10-22T11:40:14.484Z,18.7
2022-10-22T11:41:15.086Z,18.6
2022-10-22T11:42:15.689Z,18.7
2022-10-22T11:43:16.289Z,18.6
2022-10-22T11:44:16.888Z,18.5
2022-10-22T11:45:17.487Z,18.5
2022-10-22T11:46:18.092Z,18.5
2022-10-22T11:47:18.686Z,18.5
2022-10-22T11:48:19.295Z,18.5
2022-10-22T11:49:19.885Z,18.4
2022-10-22T11:50:20.481Z,18.3
2022-10-22T11:51:21.082Z,18.4
2022-10-22T11:52:21.681Z,18.3
2022-10-22T11:53:22.285Z,18.3
2022-10-22T11:54:22.882Z,18.2
2022-10-22T11:55:23.486Z,18.3
2022-10-22T11:56:24.104Z,18.3
2022-10-22T11:57:24.705Z,18.5
2022-10-22T11:58:25.307Z,18.4
2022-10-22T11:59:25.907Z,18.3
2022-10-22T12:00:26.505Z,18.2
2022-10-22T12:01:27.205Z,18.2
2022-10-22T12:02:27.765Z,18.3
2022-10-22T12:03:28.363Z,18.2
2022-10-22T12:04:29.001Z,18.3
2022-10-22T12:05:29.595Z,18.2
2022-10-22T12:06:30.195Z,18.2
2022-10-22T12:07:30.794Z,18.3
2022-10-22T12:08:31.431Z,18.2
2022-10-22T12:09:31.994Z,18.2
2022-10-22T12:10:32.592Z,18.2
2022-10-22T12:11:33.193Z,18.1
2022-10-22T12:12:33.793Z,18.0
2022-10-22T12:13:34.395Z,18.1
2022-10-22T12:14:35.009Z,18.0
2022-10-22T12:15:35.608Z,18.1
2022-10-22T12:16:56.233Z,18.1
2022-10-22T12:17:37.809Z,18.1
2022-10-22T12:18:38.411Z,18.1
2022-10-22T12:19:39.012Z,18.1
2022-10-22T12:20:39.612Z,18.1
2022-10-22T12:21:40.212Z,18.2
2022-10-22T12:22:41.052Z,18.4
2022-10-22T12:23:41.818Z,18.3
2022-10-22T12:24:42.420Z,18.3
2022-10-22T12:25:43.020Z,18.4
2022-10-22T12:26:43.623Z,18.5
2022-10-22T12:27:44.488Z,18.6
2022-10-22T12:28:45.151Z,18.5
2022-10-22T12:29:45.753Z,18.4
2022-10-22T12:30:46.353Z,18.6
2022-10-22T12:31:46.955Z,18.5
2022-10-22T12:32:47.557Z,18.4
2022-10-22T12:33:48.154Z,18.3
2022-10-22T12:35:49.360Z,18.5
2022-10-22T12:36:49.961Z,18.5
2022-10-22T12:37:50.563Z,18.5
2022-10-22T12:38:51.161Z,18.5
2022-10-22T12:39:51.783Z,18.4
2022-10-22T12:40:52.383Z,18.4
2022-10-22T12:41:52.984Z,18.3
2022-10-22T12:42:53.584Z,18.3
2022-10-22T12:43:54.187Z,18.3
2022-10-22T12:44:54.806Z,18.1
2022-10-22T12:45:55.424Z,18.2
2022-10-22T12:46:57.144Z,18.2
2022-10-22T12:47:57.619Z,18.1
2022-10-22T12:48:58.221Z,18.2
2022-10-22T12:49:58.828Z,18.2
2022-10-22T12:50:59.442Z,18.3
2022-10-22T12:52:00.043Z,18.2
2022-10-22T12:53:00.646Z,18.1
2022-10-22T12:54:01.244Z,18.1
2022-10-22T12:55:01.844Z,18.0
2022-10-22T12:56:02.445Z,17.9
2022-10-22T12:57:03.047Z,17.9
2022-10-22T12:58:03.646Z,17.8
2022-10-22T12:59:04.248Z,17.8
2022-10-22T13:00:04.982Z,17.6
2022-10-22T13:01:05.625Z,17.5
2022-10-22T13:02:09.048Z,17.7
2022-10-22T13:03:07.789Z,17.6
2022-10-22T13:04:08.390Z,17.5
2022-10-22T13:05:08.990Z,17.6
2022-10-22T13:06:09.589Z,17.6
2022-10-22T13:07:10.189Z,17.5
2022-10-22T13:08:10.786Z,17.5
2022-10-22T13:09:11.430Z,17.5
2022-10-22T13:10:12.023Z,17.5
2022-10-22T13:11:12.621Z,17.5
2022-10-22T13:12:13.225Z,17.5
2022-10-22T13:13:13.819Z,17.4
2022-10-22T13:14:14.418Z,17.4
2022-10-22T13:15:15.017Z,17.6
2022-10-22T13:16:15.618Z,17.4
2022-10-22T13:17:16.217Z,17.5
2022-10-22T13:18:16.823Z,17.4
2022-10-22T13:19:17.439Z,17.5
2022-10-22T13:20:18.041Z,17.4
2022-10-22T13:21:18.659Z,17.4
2022-10-22T13:22:19.279Z,17.3
2022-10-22T13:23:19.881Z,17.4
2022-10-22T13:24:20.481Z,17.4
2022-10-22T13:25:21.081Z,17.5
2022-10-22T13:26:21.702Z,17.6
2022-10-22T13:27:22.302Z,17.8
2022-10-22T13:28:22.904Z,17.7
2022-10-22T13:29:23.510Z,17.8
2022-10-22T13:30:24.106Z,17.8